Aeroporto :
LOGIN :

Iscrizione | Disclaimer

   EN    FR    IT 

 










Sommario :    VFR   VFR Marginale   IFR   IFR Intensivo   IFR Molto Intensivo
Visibilità : 
Base nubi : 
>= 8 km
>= 3000ft
5 / 8 km
1000 / 3000 ft
1500m / 5 km
500 / 1000 ft
800 / 1500m
200 / 500 ft
< 800m
< 200 ft
Simboli :   Temporali  Nebbia  Neve Forte  Precipitazioni Forti  Vento > 20 kt
SIGMETs :   Varie  Temporali  Ghiacco  Turbolenza  Onda orograficha  Ceneri Vulcaniche






- Altitudine del aeroporto : 57 ft
- Codice IATA : KRS


ENCN - Kristiansand Kjevik

ULTIMO METAR :
  • 171450Z VRB02KT 9999 BKN016 05/05 Q1014

METARs OBSOLETI :
  • 171420Z VRB01KT 9999 BKN017 06/05 Q1013
  • 171350Z 05002KT 9999 SCT017 05/04 Q1013
  • 171320Z 00000KT 9999 BKN017 07/04 Q1013
  • 171250Z 25003KT 9999 SCT032 07/04 Q1013
  • 171220Z 00000KT 9999 SCT030 07/04 Q1013
  • 171150Z 00000KT 9999 SCT030 07/04 Q1013

TAF TAF ENCN
Valido dal 17 a 15 ore il 17 a 23 ore UTC


171400Z 1715/1723 03005KT 9999 BKN020
PROB30 1715/1721 0500 FG VV001



MetMap, La meteo Aeronautica in un colpo d'occhio ! - Copyright ORBIFLY Dicembre 2007 - Disclaimer

ORBIFLY MET'MAP TEAM :

Programmazione e sviluppo : Alexandra Zaïnal
Concezione e sviluppo : Baudouin d'Aumeries
Co-Programmazione e sviluppo : Marc-Olivier Méhu
Supporto tecnico e logistico : Manuel Goepfert
Aiuto per la traduzione : Arnaldo La Scala

Contatto : metmap@orbifly.com




FONTI E CREDITI :

   NOAA